This is the latest recevied weather packets stored in our database for station/object PY2RMF-10. If no packets are shown the sender has not sent any weather packets the latest 1 day(s).
| Time | Temp. | Humidity | Pressure | Rain* | Wind** | Luminosity | Snow |
|---|---|---|---|---|---|---|---|
| 1778087911 | 39.44° C | 24% | 1005 hPa | - | - | - | - |
| 1778082512 | 38.33° C | 30% | 1007 hPa | - | - | - | - |
| 1778078911 | 32.22° C | 49% | 1008 hPa | - | - | - | - |
| 1778077111 | 28.33° C | 59% | 1009 hPa | - | - | - | - |
| 1778069912 | 22.78° C | 100% | 1010 hPa | - | - | - | - |
| 1778068111 | 22.22° C | 100% | 1009 hPa | - | - | - | - |
| 1778066311 | 21.67° C | 100% | 1009 hPa | - | - | - | - |
| 1778064511 | 21.11° C | 100% | 1009 hPa | - | - | - | - |
| 1778059112 | 19.44° C | 100% | 1008 hPa | - | - | - | - |
| 1778057311 | 20° C | 100% | 1007 hPa | - | - | - | - |
| 1778048312 | 21.11° C | 100% | 1007 hPa | - | - | - | - |
| 1778046511 | 21.11° C | 100% | 1007 hPa | - | - | - | - |
| 1778042911 | 21.67° C | 100% | 1008 hPa | - | - | - | - |
| 1778041111 | 21.67° C | 98% | 1008 hPa | - | - | - | - |
| 1778039311 | 22.22° C | 93% | 1008 hPa | - | - | - | - |
| 1778037512 | 22.22° C | 92% | 1008 hPa | - | - | - | - |
| 1778035711 | 22.22° C | 90% | 1008 hPa | - | - | - | - |
| 1778033911 | 22.78° C | 89% | 1009 hPa | - | - | - | - |
| 1778032111 | 22.78° C | 88% | 1008 hPa | - | - | - | - |
| 1778026712 | 23.33° C | 83% | 1009 hPa | - | - | - | - |
| 1778019512 | 24.44° C | 68% | 1008 hPa | - | - | - | - |
| 1778017711 | 25.56° C | 60% | 1008 hPa | - | - | - | - |
| 1778015911 | 26.67° C | 51% | 1008 hPa | - | - | - | - |
| 1778012312 | 29.44° C | 43% | 1007 hPa | - | - | - | - |
| 1778008712 | 33.33° C | 38% | 1007 hPa | - | - | - | - |
* Rain since midnight (hover to see other rain measurements)
** Current wind speed in m/s (hover to see current wind gust speed)